Time;durP1;ratioP1;P1;durP2;ratioP2;P2;SDS_P1;SDS_P2;PMS_P1;PMS_P2;Temp;Humidity;BMP_temperature;BMP_pressure;BME280_temperature;BME280_humidity;BME280_pressure;Samples;Min_cycle;Max_cycle;Signal;HPM_P1;HPM_P2
2023/11/20 00:00:26;;;;;;;13.52;6.03;;;;;;;6.48;100.00;97281.66;4995344;28;20049;-76
2023/11/20 00:02:52;;;;;;;11.55;5.75;;;;;;;6.46;100.00;97281.72;5011824;28;20033;-75
2023/11/20 00:05:19;;;;;;;12.80;6.75;;;;;;;6.44;100.00;97294.22;4995123;28;20033;-77
2023/11/20 00:07:46;;;;;;;11.88;5.97;;;;;;;6.39;100.00;97285.63;5012845;28;20113;-76
2023/11/20 00:10:12;;;;;;;16.23;7.47;;;;;;;6.41;100.00;97288.19;4995192;28;20034;-75
2023/11/20 00:12:37;;;;;;;21.73;9.55;;;;;;;6.23;100.00;97289.97;5011562;28;20083;-75
2023/11/20 00:15:03;;;;;;;23.65;10.70;;;;;;;6.43;100.00;97294.28;5011448;28;20036;-76
2023/11/20 00:17:29;;;;;;;17.05;8.88;;;;;;;6.48;100.00;97289.63;5011355;28;20037;-76
2023/11/20 00:19:55;;;;;;;17.48;8.50;;;;;;;6.44;100.00;97280.06;5011345;28;20087;-74
2023/11/20 00:22:21;;;;;;;15.07;7.43;;;;;;;6.47;100.00;97290.53;5011065;28;20037;-75
2023/11/20 00:24:46;;;;;;;12.70;6.60;;;;;;;6.53;100.00;97282.25;4994255;28;20107;-76
2023/11/20 00:27:12;;;;;;;17.23;8.25;;;;;;;6.62;100.00;97280.94;5012207;28;20403;-76
2023/11/20 00:29:38;;;;;;;16.55;7.47;;;;;;;6.61;100.00;97293.38;5012702;28;20030;-74
2023/11/20 00:32:04;;;;;;;14.05;7.20;;;;;;;6.66;100.00;97295.78;4978371;28;20480;-75
2023/11/20 00:34:29;;;;;;;37.15;14.70;;;;;;;6.64;100.00;97295.03;4994718;28;20025;-74
2023/11/20 00:36:55;;;;;;;21.55;9.95;;;;;;;6.63;100.00;97287.97;4994927;28;20029;-74
2023/11/20 00:39:20;;;;;;;18.83;8.50;;;;;;;6.58;100.00;97304.16;4994755;28;20026;-75
2023/11/20 00:41:46;;;;;;;36.22;12.30;;;;;;;6.57;100.00;97305.09;4994599;28;20037;-75
2023/11/20 00:44:13;;;;;;;27.80;12.35;;;;;;;6.60;100.00;97299.63;4994650;28;20395;-76
2023/11/20 00:46:39;;;;;;;26.92;12.65;;;;;;;6.55;100.00;97302.50;5012123;28;20022;-74
2023/11/20 00:49:05;;;;;;;24.20;11.38;;;;;;;6.62;100.00;97303.06;5012046;28;20022;-75
2023/11/20 00:51:31;;;;;;;28.17;12.45;;;;;;;6.66;100.00;97294.00;4994394;28;20128;-76
2023/11/20 00:53:57;;;;;;;25.50;11.38;;;;;;;6.71;100.00;97309.69;4994486;28;20536;-74
2023/11/20 00:56:23;;;;;;;24.00;11.50;;;;;;;6.64;100.00;97300.34;4994196;28;20034;-75
2023/11/20 00:58:49;;;;;;;24.88;12.18;;;;;;;6.67;100.00;97302.84;4994649;28;20034;-75
2023/11/20 01:01:15;;;;;;;24.77;11.48;;;;;;;6.68;100.00;97300.09;4978121;28;20026;-75
2023/11/20 01:03:41;;;;;;;27.13;11.50;;;;;;;6.73;100.00;97300.75;4978192;28;20032;-75
2023/11/20 01:06:08;;;;;;;22.02;11.60;;;;;;;6.73;100.00;97298.09;4994228;28;20018;-75
2023/11/20 01:08:37;;;;;;;18.35;9.73;;;;;;;6.65;100.00;97292.28;4977964;28;20472;-76
2023/11/20 01:11:12;;;;;;;11.13;6.57;;;;;;;6.64;100.00;97281.75;4994287;28;20072;-76
2023/11/20 01:13:38;;;;;;;16.83;8.40;;;;;;;6.54;100.00;97276.88;4994495;28;20033;-76
2023/11/20 01:16:05;;;;;;;15.93;8.15;;;;;;;6.42;100.00;97279.28;4977829;28;20485;-75
2023/11/20 01:18:35;;;;;;;16.27;8.00;;;;;;;6.29;100.00;97273.72;4994243;28;20487;-75
2023/11/20 01:21:01;;;;;;;14.93;7.47;;;;;;;6.18;100.00;97269.88;5011712;28;20032;-75
2023/11/20 01:23:26;;;;;;;16.08;6.90;;;;;;;6.07;100.00;97278.38;5011521;28;20034;-75
2023/11/20 01:25:52;;;;;;;12.75;6.80;;;;;;;5.89;100.00;97290.72;4995110;28;20045;-75
2023/11/20 01:28:17;;;;;;;16.77;7.18;;;;;;;5.86;100.00;97290.00;5010263;28;20033;-76
2023/11/20 01:30:43;;;;;;;18.35;9.32;;;;;;;5.68;100.00;97294.38;5010312;28;20084;-75
2023/11/20 01:33:08;;;;;;;15.32;8.27;;;;;;;5.65;100.00;97299.81;5011562;28;20033;-76
2023/11/20 01:35:34;;;;;;;18.90;8.38;;;;;;;5.62;100.00;97301.75;5014239;28;20048;-75
2023/11/20 01:37:59;;;;;;;12.82;6.85;;;;;;;5.60;100.00;97304.44;5014172;28;20030;-76
2023/11/20 01:40:25;;;;;;;16.50;7.95;;;;;;;5.60;100.00;97308.94;5014102;28;20125;-75
2023/11/20 01:42:51;;;;;;;29.95;13.35;;;;;;;5.70;100.00;97319.03;5014421;28;20053;-76
2023/11/20 01:45:16;;;;;;;22.98;9.70;;;;;;;5.74;100.00;97312.66;5014116;28;20068;-76
2023/11/20 01:47:42;;;;;;;16.10;6.97;;;;;;;5.78;100.00;97302.75;5013993;28;20029;-76
2023/11/20 01:50:10;;;;;;;10.35;6.00;;;;;;;5.82;100.00;97305.19;4997810;28;20034;-75
2023/11/20 01:52:40;;;;;;;16.05;6.35;;;;;;;5.85;100.00;97302.41;4997472;28;20601;-75
2023/11/20 01:55:07;;;;;;;14.30;7.15;;;;;;;5.81;100.00;97292.88;5014117;28;20036;-75
2023/11/20 01:57:34;;;;;;;13.38;6.32;;;;;;;5.72;100.00;97287.97;5013855;28;20029;-75
2023/11/20 02:00:00;;;;;;;12.02;6.15;;;;;;;5.66;100.00;97287.41;5015336;28;20017;-75
2023/11/20 02:02:26;;;;;;;12.63;6.57;;;;;;;5.56;100.00;97289.63;5013821;28;20036;-75
2023/11/20 02:04:55;;;;;;;9.65;4.80;;;;;;;5.48;100.00;97289.09;4997432;28;20026;-74
2023/11/20 02:07:21;;;;;;;14.70;6.30;;;;;;;5.52;100.00;97290.69;5013875;28;20444;-75
2023/11/20 02:09:47;;;;;;;24.30;9.73;;;;;;;5.40;100.00;97296.56;5013655;28;20033;-74
2023/11/20 02:12:13;;;;;;;23.38;10.77;;;;;;;5.27;100.00;97295.38;5013876;28;20105;-74
2023/11/20 02:14:38;;;;;;;15.63;7.93;;;;;;;5.16;100.00;97287.06;4997069;28;20026;-75
2023/11/20 02:17:04;;;;;;;14.10;6.38;;;;;;;5.15;100.00;97295.94;5013538;28;20390;-75
2023/11/20 02:19:29;;;;;;;26.90;12.57;;;;;;;5.10;100.00;97292.66;5014698;28;20130;-76
2023/11/20 02:21:55;;;;;;;23.05;10.48;;;;;;;5.03;100.00;97286.75;5013607;28;20088;-75
2023/11/20 02:24:22;;;;;;;17.70;8.80;;;;;;;4.98;100.00;97282.59;5013754;28;20083;-76
2023/11/20 02:27:13;;;;;;;15.25;8.13;;;;;;;5.05;100.00;97291.97;5013301;28;20428;-76
2023/11/20 02:29:46;;;;;;;15.88;7.70;;;;;;;4.97;100.00;97279.06;5013381;28;20460;-76
2023/11/20 02:32:12;;;;;;;14.18;6.65;;;;;;;5.02;100.00;97292.09;5013456;28;20143;-76
2023/11/20 02:34:37;;;;;;;18.58;8.27;;;;;;;4.98;100.00;97287.88;5013492;28;20237;-76
2023/11/20 02:37:04;;;;;;;15.80;7.78;;;;;;;4.88;100.00;97287.44;5013101;28;20040;-76
2023/11/20 02:39:30;;;;;;;15.75;7.80;;;;;;;4.88;100.00;97298.88;5013351;28;20045;-75
2023/11/20 02:41:55;;;;;;;17.40;8.65;;;;;;;4.79;100.00;97295.78;5013024;28;20042;-75
2023/11/20 02:44:21;;;;;;;11.85;6.53;;;;;;;4.70;100.00;97297.03;5013550;28;20105;-75
2023/11/20 02:46:47;;;;;;;11.68;5.35;;;;;;;4.68;100.00;97298.00;5013754;28;20057;-75
2023/11/20 02:49:13;;;;;;;9.85;5.40;;;;;;;4.69;100.00;97300.59;5012963;28;20029;-74
2023/11/20 02:51:39;;;;;;;12.30;5.88;;;;;;;4.64;100.00;97294.66;5013088;28;20508;-75
2023/11/20 02:54:05;;;;;;;14.05;6.82;;;;;;;4.62;100.00;97285.88;4996712;28;20030;-76
2023/11/20 02:56:30;;;;;;;12.98;5.95;;;;;;;4.63;100.00;97270.88;5014178;28;20555;-75
2023/11/20 02:58:56;;;;;;;11.68;6.68;;;;;;;4.98;100.00;97278.16;5014066;28;20117;-75
2023/11/20 03:01:22;;;;;;;15.35;7.28;;;;;;;4.99;100.00;97284.28;5012987;28;20030;-76
2023/11/20 03:03:48;;;;;;;27.83;7.40;;;;;;;4.88;100.00;97285.66;5012658;28;20029;-75
2023/11/20 03:06:14;;;;;;;17.27;7.47;;;;;;;4.80;100.00;97284.22;5012827;28;20052;-76
2023/11/20 03:08:39;;;;;;;16.08;7.97;;;;;;;4.79;100.00;97278.09;4996487;28;20033;-74
2023/11/20 03:11:05;;;;;;;15.77;7.15;;;;;;;4.74;100.00;97280.06;4996131;28;20084;-76
2023/11/20 03:13:31;;;;;;;12.57;6.43;;;;;;;4.75;100.00;97271.19;5012585;28;20124;-75
2023/11/20 03:15:56;;;;;;;14.48;7.22;;;;;;;4.78;100.00;97272.84;5012509;28;20044;-75
2023/11/20 03:18:22;;;;;;;14.75;7.47;;;;;;;4.76;100.00;97278.22;5012380;28;20500;-75
2023/11/20 03:20:48;;;;;;;22.13;8.73;;;;;;;4.68;100.00;97280.31;4996192;28;20030;-75
2023/11/20 03:23:13;;;;;;;15.15;6.93;;;;;;;4.57;100.00;97277.28;5012326;28;20140;-75
2023/11/20 03:25:40;;;;;;;14.02;7.03;;;;;;;4.60;100.00;97281.59;5013411;28;20513;-75
2023/11/20 03:28:05;;;;;;;13.68;7.00;;;;;;;4.57;100.00;97279.94;4979719;28;20622;-75
2023/11/20 03:30:32;;;;;;;21.33;7.45;;;;;;;4.49;100.00;97274.09;4995845;28;20038;-75
2023/11/20 03:32:58;;;;;;;27.65;10.18;;;;;;;4.60;100.00;97277.16;4996069;28;20037;-75
2023/11/20 03:35:24;;;;;;;29.60;10.18;;;;;;;4.53;100.00;97286.28;4995756;28;20034;-75
2023/11/20 03:37:49;;;;;;;16.73;4.22;;;;;;;4.47;100.00;97277.72;4995978;28;20026;-75
2023/11/20 03:40:16;;;;;;;17.08;7.05;;;;;;;4.45;100.00;97279.59;4996041;28;20034;-74
2023/11/20 03:42:42;;;;;;;16.60;6.15;;;;;;;4.35;100.00;97281.75;5013353;28;20026;-76
2023/11/20 03:45:08;;;;;;;9.95;5.40;;;;;;;4.36;100.00;97273.78;5013388;28;20474;-76
2023/11/20 03:47:33;;;;;;;12.45;5.28;;;;;;;4.44;100.00;97269.91;4979362;28;20025;-75
2023/11/20 03:49:59;;;;;;;14.60;6.43;;;;;;;4.34;100.00;97254.41;4995558;28;20124;-76
2023/11/20 03:52:25;;;;;;;16.60;6.88;;;;;;;4.43;100.00;97250.50;4995778;28;20033;-75
2023/11/20 03:54:51;;;;;;;12.40;6.53;;;;;;;4.48;100.00;97251.19;5013101;28;20025;-75
2023/11/20 03:57:17;;;;;;;12.05;6.78;;;;;;;4.37;100.00;97258.72;4995334;28;20049;-76
2023/11/20 03:59:42;;;;;;;11.98;6.07;;;;;;;4.38;100.00;97257.81;4994800;28;20398;-76
2023/11/20 04:02:08;;;;;;;14.50;6.80;;;;;;;4.30;100.00;97255.50;4979271;28;20030;-75
2023/11/20 04:04:34;;;;;;;12.43;6.78;;;;;;;4.29;100.00;97269.66;4995215;28;20030;-74
2023/11/20 04:06:59;;;;;;;15.07;6.40;;;;;;;4.32;100.00;97266.88;4995379;28;20029;-76
2023/11/20 04:09:25;;;;;;;12.05;6.38;;;;;;;4.34;100.00;97264.16;4995486;28;20025;-75
2023/11/20 04:11:51;;;;;;;17.30;6.88;;;;;;;4.21;100.00;97265.59;4994967;28;20117;-75
2023/11/20 04:14:17;;;;;;;15.32;6.72;;;;;;;4.20;100.00;97274.47;4979067;28;20511;-76
2023/11/20 04:16:42;;;;;;;13.65;7.28;;;;;;;4.20;100.00;97277.09;4995123;28;20113;-75
2023/11/20 04:19:09;;;;;;;16.27;6.82;;;;;;;4.09;100.00;97268.75;4978893;28;20036;-76
2023/11/20 04:21:39;;;;;;;14.43;6.25;;;;;;;4.08;100.00;97274.97;4995313;28;20022;-76
2023/11/20 04:24:05;;;;;;;12.25;5.72;;;;;;;4.00;100.00;97258.53;4994969;28;20037;-77
2023/11/20 04:26:31;;;;;;;9.15;4.72;;;;;;;3.99;100.00;97262.09;5001305;28;20390;-76
2023/11/20 04:28:56;;;;;;;11.60;4.93;;;;;;;3.96;100.00;97256.94;4994795;28;20026;-75
2023/11/20 04:31:22;;;;;;;12.63;4.90;;;;;;;4.03;100.00;97258.41;5011223;28;20022;-75
2023/11/20 04:33:48;;;;;;;7.65;3.63;;;;;;;4.00;100.00;97254.09;5012619;28;20033;-76
2023/11/20 04:36:14;;;;;;;7.85;4.22;;;;;;;3.97;100.00;97256.03;5010883;28;20069;-75
2023/11/20 04:38:39;;;;;;;10.05;4.63;;;;;;;3.98;100.00;97247.13;5010986;28;20057;-77
2023/11/20 04:41:05;;;;;;;8.90;3.65;;;;;;;3.97;100.00;97259.50;5010787;28;20386;-75
2023/11/20 04:43:31;;;;;;;8.82;4.45;;;;;;;3.79;100.00;97255.81;5010814;28;20489;-76
2023/11/20 04:45:57;;;;;;;8.40;4.55;;;;;;;3.84;100.00;97253.84;5010680;28;20033;-74
2023/11/20 04:48:23;;;;;;;14.13;5.63;;;;;;;3.92;100.00;97255.31;5010928;28;20114;-75
2023/11/20 04:50:48;;;;;;;9.07;5.40;;;;;;;4.05;100.00;97272.44;5010593;28;20033;-75
2023/11/20 04:53:14;;;;;;;13.55;5.43;;;;;;;4.08;100.00;97253.78;5010500;28;20481;-74
2023/11/20 04:55:39;;;;;;;29.00;11.48;;;;;;;4.15;100.00;97264.03;5010458;28;20036;-74
2023/11/20 04:58:05;;;;;;;26.42;11.77;;;;;;;4.14;100.00;97261.47;5010417;28;20026;-74
2023/11/20 05:00:31;;;;;;;32.92;13.40;;;;;;;4.00;100.00;97246.16;5010551;28;20061;-74
2023/11/20 05:02:57;;;;;;;27.15;10.50;;;;;;;4.00;100.00;97256.72;5010422;28;20053;-75
2023/11/20 05:05:23;;;;;;;28.83;13.73;;;;;;;3.89;100.00;97247.50;4994104;28;20061;-76
2023/11/20 05:07:49;;;;;;;26.02;11.30;;;;;;;3.97;100.00;97253.38;4994121;28;20026;-75
2023/11/20 05:10:15;;;;;;;30.92;12.07;;;;;;;4.01;100.00;97257.59;5010005;28;20415;-74
2023/11/20 05:12:41;;;;;;;30.55;12.70;;;;;;;4.06;100.00;97260.94;5010391;28;20493;-76
2023/11/20 05:15:08;;;;;;;45.90;15.10;;;;;;;4.11;100.00;97269.53;5009465;28;20029;-76
2023/11/20 05:17:33;;;;;;;51.80;25.52;;;;;;;4.13;100.00;97265.91;4992119;28;20084;-75
2023/11/20 05:19:59;;;;;;;41.75;18.05;;;;;;;4.07;100.00;97265.28;5009286;28;20030;-78
2023/11/20 05:22:26;;;;;;;41.35;16.90;;;;;;;4.01;100.00;97260.25;5010914;28;20121;-75
2023/11/20 05:24:52;;;;;;;43.33;19.70;;;;;;;4.09;100.00;97279.34;5008183;28;20113;-79
2023/11/20 05:27:19;;;;;;;43.50;18.02;;;;;;;4.10;100.00;97281.03;4990318;28;20593;-74
2023/11/20 05:29:46;;;;;;;54.90;20.40;;;;;;;4.24;100.00;97287.53;5008664;28;20022;-75
2023/11/20 05:32:12;;;;;;;57.65;22.63;;;;;;;4.22;100.00;97280.53;5010529;28;20454;-76
2023/11/20 05:34:38;;;;;;;72.15;28.30;;;;;;;4.20;100.00;97285.03;5010324;28;20033;-74
2023/11/20 05:37:08;;;;;;;58.22;25.85;;;;;;;4.16;100.00;97275.50;5010032;28;20077;-73
2023/11/20 05:39:33;;;;;;;72.20;28.35;;;;;;;4.30;100.00;97278.44;5010047;28;20030;-75
2023/11/20 05:41:59;;;;;;;80.07;29.55;;;;;;;4.35;100.00;97276.47;5009885;28;20049;-74
2023/11/20 05:44:24;;;;;;;57.53;25.10;;;;;;;4.39;100.00;97278.06;5011030;28;20156;-73
2023/11/20 05:46:51;;;;;;;59.70;23.85;;;;;;;4.46;100.00;97271.56;5009926;28;20034;-76
2023/11/20 05:49:17;;;;;;;60.15;23.83;;;;;;;4.34;100.00;97264.16;5009840;28;20417;-75
2023/11/20 05:51:42;;;;;;;57.97;25.75;;;;;;;4.35;100.00;97276.47;5011124;28;20026;-74
2023/11/20 05:54:09;;;;;;;70.95;25.05;;;;;;;4.35;100.00;97279.97;5010007;28;20342;-73
2023/11/20 05:56:38;;;;;;;83.80;32.65;;;;;;;4.46;100.00;97287.44;5009818;28;20040;-74
2023/11/20 05:59:04;;;;;;;72.15;25.25;;;;;;;4.41;100.00;97296.53;5009738;28;20034;-75
2023/11/20 06:01:39;;;;;;;53.33;21.25;;;;;;;4.40;100.00;97308.91;5009231;28;20037;-75
2023/11/20 06:04:08;;;;;;;118.85;49.78;;;;;;;4.43;100.00;97303.47;5009426;28;20109;-76
2023/11/20 06:06:33;;;;;;;34.30;13.23;;;;;;;4.43;100.00;97322.00;5010852;28;20109;-74
2023/11/20 06:09:02;;;;;;;25.77;11.98;;;;;;;4.59;100.00;97316.94;5009814;28;20109;-74
2023/11/20 06:11:28;;;;;;;36.53;13.70;;;;;;;4.63;100.00;97319.41;5009336;28;20107;-74
2023/11/20 06:13:53;;;;;;;33.40;12.65;;;;;;;4.69;100.00;97318.28;5009818;28;20018;-74
2023/11/20 06:16:19;;;;;;;31.73;10.73;;;;;;;4.80;100.00;97322.19;5010586;28;20037;-74
2023/11/20 06:18:45;;;;;;;246.48;121.95;;;;;;;5.20;100.00;97321.31;5009701;28;20597;-75
2023/11/20 06:21:10;;;;;;;43.53;19.00;;;;;;;5.51;100.00;97315.50;5010131;28;20064;-75
2023/11/20 06:23:36;;;;;;;42.40;17.23;;;;;;;5.87;100.00;97316.50;5013054;28;20133;-75
2023/11/20 06:26:02;;;;;;;37.78;17.40;;;;;;;7.53;100.00;97317.78;5012832;28;20035;-76
2023/11/20 06:28:28;;;;;;;27.55;13.60;;;;;;;9.70;100.00;97281.06;5014432;28;20034;-75
2023/11/20 06:30:53;;;;;;;29.05;14.57;;;;;;;11.53;100.00;97266.09;5013017;28;20032;-75
2023/11/20 06:33:20;;;;;;;26.60;12.75;;;;;;;12.82;96.94;97251.28;5017396;28;20025;-73
2023/11/20 06:35:46;;;;;;;34.50;14.10;;;;;;;13.88;80.38;97232.19;4996841;28;20045;-75
2023/11/20 06:38:12;;;;;;;24.70;10.70;;;;;;;14.23;73.27;97229.34;5014386;28;20026;-76
2023/11/20 06:40:39;;;;;;;26.55;11.27;;;;;;;14.71;70.81;97233.38;5012966;28;20030;-75
2023/11/20 06:43:05;;;;;;;44.40;19.60;;;;;;;15.06;68.72;97238.50;5013363;28;20030;-75
2023/11/20 06:45:30;;;;;;;82.22;39.53;;;;;;;15.00;65.98;97250.66;5013180;28;20044;-75
2023/11/20 06:47:56;;;;;;;35.22;17.95;;;;;;;13.40;75.28;97259.28;5013076;28;20030;-74
2023/11/20 06:50:24;;;;;;;52.47;16.15;;;;;;;12.53;85.77;97280.28;5012925;28;20165;-75
2023/11/20 06:52:51;;;;;;;47.92;17.33;;;;;;;12.17;92.54;97280.28;4996297;28;20401;-75
2023/11/20 06:55:17;;;;;;;72.13;25.50;;;;;;;11.83;95.05;97281.88;5012805;28;20037;-75
2023/11/20 06:57:44;;;;;;;47.85;17.42;;;;;;;11.29;100.00;97284.72;5012674;28;20164;-75
2023/11/20 07:00:12;;;;;;;42.53;16.48;;;;;;;11.31;100.00;97290.84;5012884;28;20051;-74
2023/11/20 07:02:38;;;;;;;44.45;16.60;;;;;;;11.00;100.00;97290.34;4996140;28;20484;-76
2023/11/20 07:05:04;;;;;;;75.40;32.55;;;;;;;10.81;100.00;97306.78;5012603;28;20041;-75
2023/11/20 07:07:30;;;;;;;83.00;38.88;;;;;;;10.55;100.00;97300.47;5012588;28;20030;-75
2023/11/20 07:09:55;;;;;;;87.20;38.38;;;;;;;10.64;100.00;97296.38;5012394;28;20049;-76
2023/11/20 07:12:21;;;;;;;83.90;38.25;;;;;;;11.63;100.00;97293.94;5013833;28;20036;-74
2023/11/20 07:14:46;;;;;;;99.70;38.17;;;;;;;12.11;100.00;97286.09;5013616;28;20018;-76
2023/11/20 07:17:13;;;;;;;81.90;35.72;;;;;;;12.93;100.00;97279.00;5013773;28;20168;-75
2023/11/20 07:19:40;;;;;;;78.20;34.17;;;;;;;14.37;86.35;97262.22;5012073;28;20413;-76
2023/11/20 07:22:06;;;;;;;92.22;38.67;;;;;;;16.35;73.45;97236.09;5013689;28;20033;-76
2023/11/20 07:24:31;;;;;;;87.68;36.13;;;;;;;17.95;62.84;97230.06;5012327;28;20417;-74
2023/11/20 07:26:57;;;;;;;78.07;28.45;;;;;;;19.67;54.33;97223.47;5012114;28;20054;-75
2023/11/20 07:29:22;;;;;;;64.13;28.88;;;;;;;20.86;49.84;97212.47;5013619;28;20084;-76
2023/11/20 07:31:48;;;;;;;120.57;40.33;;;;;;;20.73;48.32;97198.53;5013574;28;20033;-74
2023/11/20 07:34:14;;;;;;;121.72;42.83;;;;;;;21.49;46.92;97200.97;5012051;28;20049;-75
2023/11/20 07:36:39;;;;;;;56.03;23.67;;;;;;;22.10;43.93;97197.66;5013383;28;20069;-74
2023/11/20 07:39:06;;;;;;;41.55;18.45;;;;;;;22.75;42.24;97198.25;5012240;28;20050;-75
2023/11/20 07:41:31;;;;;;;37.53;20.17;;;;;;;23.38;41.17;97183.50;5013333;28;20462;-75
2023/11/20 07:43:57;;;;;;;53.53;17.98;;;;;;;23.16;40.95;97188.75;5011932;28;20057;-75
2023/11/20 07:46:22;;;;;;;44.00;11.95;;;;;;;22.38;41.49;97184.44;5013425;28;20547;-74
2023/11/20 07:48:50;;;;;;;21.17;11.35;;;;;;;23.38;40.30;97175.31;5013525;28;20033;-75
2023/11/20 07:51:16;;;;;;;26.02;11.27;;;;;;;22.86;40.49;97173.28;5013330;28;20025;-76
2023/11/20 07:53:42;;;;;;;16.05;7.72;;;;;;;22.43;40.93;97166.53;5012068;28;20380;-76
2023/11/20 07:56:08;;;;;;;15.18;4.90;;;;;;;22.05;41.10;97165.50;5013099;28;20079;-75
2023/11/20 07:58:33;;;;;;;16.42;5.95;;;;;;;22.54;40.35;97157.09;5011787;28;20018;-75
2023/11/20 08:01:12;;;;;;;17.25;5.22;;;;;;;22.76;39.10;97153.59;5011699;28;20051;-75
2023/11/20 08:03:38;;;;;;;26.65;12.38;;;;;;;22.74;39.71;97163.81;5011689;28;20049;-75
2023/11/20 08:06:04;;;;;;;13.82;6.55;;;;;;;22.36;39.75;97176.47;5013090;28;20050;-74
2023/11/20 08:08:29;;;;;;;34.78;12.32;;;;;;;23.59;38.37;97165.41;5011524;28;20091;-74
2023/11/20 08:10:55;;;;;;;60.10;18.25;;;;;;;23.70;37.73;97142.25;5011727;28;20482;-75
2023/11/20 08:13:21;;;;;;;45.70;15.68;;;;;;;23.52;39.09;97136.28;5011789;28;20516;-75
2023/11/20 08:15:47;;;;;;;20.52;9.68;;;;;;;23.60;36.79;97128.00;5011233;28;20018;-75
2023/11/20 08:18:12;;;;;;;16.35;5.78;;;;;;;23.09;36.57;97146.88;5012717;28;20569;-75
2023/11/20 08:20:38;;;;;;;8.07;3.33;;;;;;;23.39;34.29;97136.03;5011383;28;20101;-75
2023/11/20 08:23:03;;;;;;;5.90;3.00;;;;;;;23.09;34.85;97140.56;5012684;28;20116;-75
2023/11/20 08:25:29;;;;;;;3.38;2.28;;;;;;;22.73;34.72;97134.88;5011003;28;20037;-75
2023/11/20 08:27:54;;;;;;;8.50;1.77;;;;;;;23.22;34.42;97141.63;5012584;28;20029;-76
2023/11/20 08:30:20;;;;;;;3.90;1.90;;;;;;;23.76;33.84;97146.97;4995221;28;20036;-75
2023/11/20 08:32:45;;;;;;;4.43;1.58;;;;;;;22.36;34.27;97159.25;4978466;28;20040;-75
2023/11/20 08:35:11;;;;;;;4.20;1.40;;;;;;;23.39;33.46;97144.22;4995140;28;20120;-76
2023/11/20 08:37:37;;;;;;;1.92;1.63;;;;;;;23.34;33.45;97144.78;5012232;28;20057;-75
2023/11/20 08:40:06;;;;;;;2.67;1.40;;;;;;;23.49;32.37;97131.19;4994696;28;20434;-76
2023/11/20 08:42:32;;;;;;;1.60;1.40;;;;;;;21.89;34.03;97138.31;4994618;28;20068;-75
2023/11/20 08:44:57;;;;;;;3.47;2.40;;;;;;;21.76;35.37;97128.94;5011852;28;20383;-75
2023/11/20 08:47:23;;;;;;;4.90;1.80;;;;;;;21.75;34.85;97122.66;4994665;28;20104;-74
2023/11/20 08:49:51;;;;;;;9.43;2.10;;;;;;;22.06;35.00;97129.03;5012104;28;20405;-74
2023/11/20 08:52:18;;;;;;;28.83;2.13;;;;;;;22.69;34.18;97128.06;4995331;28;20026;-74
2023/11/20 08:54:43;;;;;;;6.38;2.55;;;;;;;23.25;34.86;97118.59;4978285;28;20026;-76
2023/11/20 08:57:09;;;;;;;16.55;3.90;;;;;;;23.86;32.51;97101.09;5012164;28;20026;-75
2023/11/20 08:59:34;;;;;;;9.50;2.22;;;;;;;23.98;32.45;97099.56;4994046;28;20512;-74
2023/11/20 09:02:00;;;;;;;3.47;2.20;;;;;;;24.50;32.76;97101.31;4994588;28;20022;-74
2023/11/20 09:04:26;;;;;;;3.38;2.38;;;;;;;24.25;31.75;97096.19;4994738;28;20029;-74
2023/11/20 09:06:51;;;;;;;36.30;28.42;;;;;;;22.65;33.88;97099.44;4994254;28;20029;-76
2023/11/20 09:09:17;;;;;;;6.82;4.45;;;;;;;22.41;35.56;97100.44;4994405;28;20017;-75
2023/11/20 09:15:06;;;;;;;11.20;4.50;;;;;;;23.01;34.09;97084.16;5012302;28;20033;-74
2023/11/20 09:17:32;;;;;;;16.30;9.93;;;;;;;21.86;36.77;97097.78;4994008;28;20505;-75
2023/11/20 09:19:58;;;;;;;5.53;3.17;;;;;;;20.87;36.26;97093.69;4994098;28;20030;-75
2023/11/20 09:22:25;;;;;;;9.98;5.78;;;;;;;20.13;37.66;97104.56;4994161;28;20033;-75
2023/11/20 09:24:51;;;;;;;6.05;2.50;;;;;;;19.59;38.72;97095.88;4994551;28;20121;-75
2023/11/20 09:27:20;;;;;;;3.97;2.53;;;;;;;21.37;37.22;97096.22;5011405;28;20129;-76
2023/11/20 09:29:45;;;;;;;2.75;1.90;;;;;;;22.66;35.69;97090.25;5011780;28;20056;-75
2023/11/20 09:32:11;;;;;;;3.67;1.80;;;;;;;23.79;34.03;97085.63;4977615;28;20069;-76
2023/11/20 09:34:39;;;;;;;3.22;1.88;;;;;;;23.87;33.53;97074.63;5011685;28;20055;-75
2023/11/20 09:37:05;;;;;;;1.83;1.40;;;;;;;22.81;33.82;97069.34;4994005;28;20034;-75
2023/11/20 09:39:30;;;;;;;2.45;1.95;;;;;;;21.90;35.36;97082.81;5011566;28;20350;-75
2023/11/20 09:41:56;;;;;;;5.18;1.73;;;;;;;22.35;36.08;97092.97;4977849;28;20034;-76
2023/11/20 09:44:26;;;;;;;4.50;2.38;;;;;;;23.43;33.99;97088.25;4977723;28;20030;-75
2023/11/20 09:46:53;;;;;;;5.68;3.30;;;;;;;24.38;33.19;97078.22;4994089;28;20018;-74
2023/11/20 09:49:25;;;;;;;3.83;2.13;;;;;;;24.66;32.76;97065.50;4993755;28;20068;-74
2023/11/20 09:51:52;;;;;;;5.15;2.78;;;;;;;24.69;32.15;97054.19;4977572;28;20026;-75
2023/11/20 09:54:18;;;;;;;4.20;2.08;;;;;;;24.75;32.68;97042.47;4993910;28;20113;-75
2023/11/20 09:56:43;;;;;;;2.85;1.80;;;;;;;24.66;32.14;97040.88;4994887;28;20426;-75
2023/11/20 09:59:12;;;;;;;4.25;2.72;;;;;;;23.90;33.25;97045.03;4997784;28;20025;-75
2023/11/20 10:01:40;;;;;;;8.25;5.57;;;;;;;23.52;33.27;97048.91;4997349;28;20033;-76
2023/11/20 10:04:07;;;;;;;12.27;6.85;;;;;;;22.48;34.20;97040.59;4981546;28;20040;-76
2023/11/20 10:06:33;;;;;;;6.32;3.28;;;;;;;22.58;34.53;97050.22;4981093;28;20617;-76
2023/11/20 10:09:02;;;;;;;6.65;4.28;;;;;;;22.20;34.92;97061.22;4981220;28;20018;-75
2023/11/20 10:11:32;;;;;;;8.32;2.83;;;;;;;22.00;35.98;97068.97;4981262;28;20032;-75
2023/11/20 10:13:58;;;;;;;3.10;1.90;;;;;;;22.52;34.58;97050.94;4981205;28;20116;-74
2023/11/20 10:16:23;;;;;;;4.68;2.03;;;;;;;22.14;34.78;97041.84;4980819;28;20117;-76
2023/11/20 10:18:49;;;;;;;4.13;2.10;;;;;;;21.67;35.54;97049.19;4997391;28;20041;-76
2023/11/20 10:21:18;;;;;;;2.05;1.40;;;;;;;21.02;36.10;97049.31;5014835;28;20038;-75
2023/11/20 10:23:44;;;;;;;1.88;1.30;;;;;;;21.72;35.31;97038.59;4997586;28;20033;-75
2023/11/20 10:26:10;;;;;;;5.75;1.80;;;;;;;22.36;34.76;97033.88;5015117;28;20049;-75
2023/11/20 10:28:40;;;;;;;2.58;1.98;;;;;;;23.23;33.89;97017.78;4997256;28;20405;-74
2023/11/20 10:31:06;;;;;;;3.97;2.20;;;;;;;24.12;33.65;97013.16;4997316;28;20063;-75
2023/11/20 10:33:31;;;;;;;42.20;23.40;;;;;;;23.48;33.33;97018.38;4997041;28;20108;-76
2023/11/20 10:36:10;;;;;;;5.38;2.65;;;;;;;22.86;34.26;97008.75;4997116;28;20025;-76
2023/11/20 10:38:36;;;;;;;15.50;11.05;;;;;;;22.53;34.47;97014.47;5015831;28;20022;-76
2023/11/20 10:41:03;;;;;;;1.77;1.45;;;;;;;22.87;33.65;97016.78;4997092;28;20124;-75
2023/11/20 10:43:30;;;;;;;4.22;2.25;;;;;;;24.11;32.85;97014.22;4980537;28;20022;-76
2023/11/20 10:45:56;;;;;;;10.45;6.97;;;;;;;25.27;31.68;97004.59;4980528;28;20034;-75
2023/11/20 10:48:22;;;;;;;6.45;2.47;;;;;;;26.54;30.40;96985.81;4997779;28;20040;-77
2023/11/20 10:50:49;;;;;;;3.20;2.38;;;;;;;26.80;30.12;96991.38;5014114;28;20033;-75
2023/11/20 10:53:17;;;;;;;5.07;1.83;;;;;;;26.99;29.93;96990.53;4980612;28;20112;-75
2023/11/20 10:55:50;;;;;;;2.50;1.42;;;;;;;26.22;30.58;96992.91;4996358;28;20029;-76
2023/11/20 10:58:16;;;;;;;1.98;1.38;;;;;;;24.96;31.68;96990.47;4980639;28;20061;-75
2023/11/20 11:00:42;;;;;;;3.83;1.23;;;;;;;24.71;31.75;96997.38;4996481;28;20033;-76
2023/11/20 11:03:11;;;;;;;7.15;1.58;;;;;;;23.76;32.90;96985.78;4996455;28;20033;-76
2023/11/20 11:05:40;;;;;;;3.03;2.00;;;;;;;22.60;34.44;97000.97;4996518;28;20529;-75
2023/11/20 11:08:08;;;;;;;1.60;1.30;;;;;;;21.80;34.70;97005.91;4995918;28;20038;-77
2023/11/20 11:10:40;;;;;;;5.90;1.92;;;;;;;21.08;36.01;97004.25;4996228;28;20061;-76
2023/11/20 11:13:07;;;;;;;2.15;1.40;;;;;;;20.64;36.91;97013.84;4996979;28;20104;-76
2023/11/20 11:15:33;;;;;;;2.33;1.13;;;;;;;19.99;38.32;97011.03;4996218;28;20044;-74
2023/11/20 11:18:05;;;;;;;2.47;1.25;;;;;;;19.83;38.15;97011.84;5006592;28;20022;-75
2023/11/20 11:20:46;;;;;;;1.77;1.02;;;;;;;19.53;38.66;97023.25;4996583;28;20484;-75
2023/11/20 11:23:14;;;;;;;2.35;1.20;;;;;;;20.46;38.18;97013.97;4996366;28;20033;-75